createdAt,value
2018-09-18T00:00:12.309Z,9.10
2018-09-18T00:02:40.540Z,8.53
2018-09-18T00:05:08.761Z,8.90
2018-09-18T00:07:36.999Z,8.63
2018-09-18T00:10:05.747Z,9.67
2018-09-18T00:12:33.971Z,10.30
2018-09-18T00:15:02.185Z,9.40
2018-09-18T00:17:30.436Z,9.87
2018-09-18T00:19:58.663Z,10.47
2018-09-18T00:22:26.935Z,10.70
2018-09-18T00:24:55.176Z,10.37
2018-09-18T00:27:23.406Z,11.37
2018-09-18T00:29:51.652Z,11.63
2018-09-18T00:32:19.874Z,11.53
2018-09-18T00:34:48.171Z,10.90
2018-09-18T00:37:16.380Z,10.77
2018-09-18T00:39:44.619Z,11.10
2018-09-18T00:42:12.844Z,10.63
2018-09-18T00:44:41.089Z,10.33
2018-09-18T00:47:09.312Z,11.13
2018-09-18T00:49:37.576Z,11.60
2018-09-18T00:52:05.812Z,10.10
2018-09-18T00:54:34.048Z,9.43
2018-09-18T00:57:02.275Z,9.77
2018-09-18T00:59:30.538Z,9.07
2018-09-18T01:01:58.756Z,9.50
2018-09-18T01:04:26.979Z,8.90
2018-09-18T01:06:55.180Z,9.03
2018-09-18T01:09:23.448Z,9.33
2018-09-18T01:11:51.668Z,8.90
2018-09-18T01:14:19.943Z,9.30
2018-09-18T01:16:48.165Z,8.40
2018-09-18T01:19:16.380Z,8.43
2018-09-18T01:21:44.605Z,8.70
2018-09-18T01:24:12.848Z,8.67
2018-09-18T01:26:41.095Z,7.93
2018-09-18T01:29:09.348Z,9.00
2018-09-18T01:31:37.577Z,8.53
2018-09-18T01:34:05.820Z,8.43
2018-09-18T01:36:34.030Z,8.33
2018-09-18T01:39:02.956Z,8.60
2018-09-18T01:41:31.167Z,8.20
2018-09-18T01:43:59.383Z,8.73
2018-09-18T01:46:27.592Z,9.10
2018-09-18T01:48:55.824Z,8.00
2018-09-18T01:51:24.129Z,7.90
2018-09-18T01:53:52.352Z,8.43
2018-09-18T01:56:20.593Z,7.97
2018-09-18T01:58:48.830Z,7.80
2018-09-18T02:01:17.048Z,8.03
2018-09-18T02:03:45.285Z,8.03
2018-09-18T02:06:13.493Z,7.50
2018-09-18T02:08:41.755Z,7.23
2018-09-18T02:11:09.972Z,8.17
2018-09-18T02:13:38.182Z,7.47
2018-09-18T02:16:06.402Z,7.60
2018-09-18T02:18:34.646Z,7.07
2018-09-18T02:21:02.996Z,7.17
2018-09-18T02:23:31.215Z,7.20
2018-09-18T02:25:59.980Z,7.10
2018-09-18T02:28:28.180Z,7.37
2018-09-18T02:30:56.436Z,7.00
2018-09-18T02:33:24.656Z,7.00
2018-09-18T02:35:52.881Z,7.50
2018-09-18T02:38:21.129Z,7.50
2018-09-18T02:40:49.348Z,7.50
2018-09-18T02:43:17.547Z,6.77
2018-09-18T02:45:45.821Z,7.10
2018-09-18T02:48:14.023Z,7.20
2018-09-18T02:50:42.353Z,6.80
2018-09-18T02:53:10.576Z,6.67
2018-09-18T02:55:38.833Z,6.83
2018-09-18T02:58:07.032Z,7.07
2018-09-18T03:00:35.255Z,7.70
2018-09-18T03:03:03.488Z,7.47
2018-09-18T03:05:31.715Z,8.10
2018-09-18T03:07:59.929Z,7.47
2018-09-18T03:10:28.157Z,6.97
2018-09-18T03:12:56.395Z,6.60
2018-09-18T03:15:24.622Z,7.13
2018-09-18T03:17:53.076Z,7.93
2018-09-18T03:20:21.325Z,7.30
2018-09-18T03:22:49.526Z,8.20
2018-09-18T03:25:17.801Z,7.67
2018-09-18T03:27:46.030Z,7.40
2018-09-18T03:30:14.252Z,7.17
2018-09-18T03:32:42.473Z,7.17
2018-09-18T03:35:10.701Z,7.43
2018-09-18T03:37:38.907Z,7.30
2018-09-18T03:40:07.115Z,7.70
2018-09-18T03:42:35.342Z,7.50
2018-09-18T03:45:03.575Z,7.37
2018-09-18T03:47:31.784Z,7.20
2018-09-18T03:50:00.016Z,7.43
2018-09-18T03:52:28.216Z,7.67
2018-09-18T03:54:56.447Z,7.53
2018-09-18T03:57:24.653Z,7.87
2018-09-18T03:59:53.385Z,7.60
2018-09-18T04:02:21.591Z,7.90
2018-09-18T04:04:49.857Z,7.93
2018-09-18T04:07:18.085Z,7.60
2018-09-18T04:09:46.328Z,7.63
2018-09-18T04:12:14.539Z,8.13
2018-09-18T04:14:42.744Z,7.53
2018-09-18T04:17:10.987Z,7.80
2018-09-18T04:19:39.241Z,7.53
2018-09-18T04:22:07.469Z,8.43
2018-09-18T04:24:35.707Z,8.37
2018-09-18T04:27:03.961Z,8.70
2018-09-18T04:29:32.155Z,7.80
2018-09-18T04:32:00.392Z,8.27
2018-09-18T04:34:28.608Z,8.97
2018-09-18T04:36:56.933Z,8.87
2018-09-18T04:39:25.319Z,8.57
2018-09-18T04:41:54.231Z,9.20
2018-09-18T04:44:22.440Z,9.00
2018-09-18T04:46:50.664Z,8.60
2018-09-18T04:49:18.916Z,8.87
2018-09-18T04:51:47.491Z,9.57
2018-09-18T04:54:15.897Z,8.50
2018-09-18T04:56:44.140Z,8.83
2018-09-18T04:59:12.371Z,9.07
2018-09-18T05:01:40.627Z,9.40
2018-09-18T05:04:08.851Z,9.80
2018-09-18T05:06:37.623Z,9.50
2018-09-18T05:09:08.044Z,9.87
2018-09-18T05:11:36.294Z,9.80
2018-09-18T05:14:04.532Z,9.83
2018-09-18T05:16:32.899Z,9.90
2018-09-18T05:19:01.154Z,10.23
2018-09-18T05:21:29.376Z,9.70
2018-09-18T05:23:57.642Z,10.33
2018-09-18T05:26:25.886Z,9.90
2018-09-18T05:28:54.094Z,9.40
2018-09-18T05:31:22.396Z,9.57
2018-09-18T05:33:50.695Z,10.00
2018-09-18T05:36:18.933Z,9.97
2018-09-18T05:38:47.177Z,10.33
2018-09-18T05:41:15.638Z,10.83
2018-09-18T05:43:44.867Z,10.37
2018-09-18T05:46:13.839Z,10.13
2018-09-18T05:48:42.177Z,10.83
2018-09-18T05:51:10.400Z,9.53
2018-09-18T05:53:38.667Z,10.03
2018-09-18T05:56:06.921Z,13.97
2018-09-18T05:58:35.144Z,9.23
2018-09-18T06:01:03.363Z,8.63
2018-09-18T06:03:31.571Z,8.60
2018-09-18T06:05:59.808Z,9.23
2018-09-18T06:08:28.058Z,9.50
2018-09-18T06:10:56.263Z,10.27
2018-09-18T06:13:24.487Z,9.53
2018-09-18T06:15:52.721Z,9.80
2018-09-18T06:18:20.979Z,10.20
2018-09-18T06:20:49.197Z,9.73
2018-09-18T06:23:17.462Z,9.27
2018-09-18T06:25:45.686Z,10.33
2018-09-18T06:28:14.042Z,9.03
2018-09-18T06:30:42.250Z,9.37
2018-09-18T06:33:10.523Z,9.77
2018-09-18T06:35:38.758Z,9.07
2018-09-18T06:38:07.036Z,9.53
2018-09-18T06:40:35.247Z,8.73
2018-09-18T06:43:03.497Z,9.63
2018-09-18T06:45:31.728Z,8.97
2018-09-18T06:47:59.959Z,9.03
2018-09-18T06:50:28.208Z,8.67
2018-09-18T06:52:56.467Z,8.87
2018-09-18T06:55:24.691Z,8.20
2018-09-18T06:57:52.961Z,9.10
2018-09-18T07:00:21.171Z,9.93
2018-09-18T07:02:49.427Z,8.87
2018-09-18T07:05:17.659Z,9.00
2018-09-18T07:07:45.896Z,8.57
2018-09-18T07:10:14.112Z,8.20
2018-09-18T07:12:42.364Z,8.83
2018-09-18T07:15:10.582Z,7.90
2018-09-18T07:17:38.841Z,7.47
2018-09-18T07:20:07.068Z,7.30
2018-09-18T07:22:35.299Z,6.43
2018-09-18T07:25:03.523Z,6.17
2018-09-18T07:27:31.782Z,5.40
2018-09-18T07:29:59.995Z,5.60
2018-09-18T07:32:28.274Z,5.62
2018-09-18T07:34:56.486Z,4.97
2018-09-18T07:37:24.729Z,4.90
2018-09-18T07:39:52.956Z,5.10
2018-09-18T07:42:21.217Z,4.83
2018-09-18T07:44:49.476Z,4.87
2018-09-18T07:47:17.704Z,4.42
2018-09-18T07:49:45.921Z,4.80
2018-09-18T07:52:14.139Z,4.50
2018-09-18T07:54:42.366Z,4.42
2018-09-18T07:57:10.575Z,5.40
2018-09-18T07:59:38.815Z,4.90
2018-09-18T08:02:07.136Z,5.30
2018-09-18T08:04:35.350Z,4.75
2018-09-18T08:07:04.817Z,5.60
2018-09-18T08:09:33.067Z,5.75
2018-09-18T08:12:01.279Z,5.78
2018-09-18T08:14:29.521Z,5.75
2018-09-18T08:16:57.755Z,6.55
2018-09-18T08:19:26.088Z,6.42
2018-09-18T08:21:54.211Z,6.42
2018-09-18T08:24:22.458Z,7.08
2018-09-18T08:26:50.754Z,7.00
2018-09-18T08:29:19.063Z,6.90
2018-09-18T08:31:47.320Z,7.05
2018-09-18T08:34:15.585Z,7.37
2018-09-18T08:36:43.811Z,6.87
2018-09-18T08:39:12.040Z,7.17
2018-09-18T08:41:40.251Z,6.65
2018-09-18T08:44:08.537Z,6.15
2018-09-18T08:46:38.041Z,6.40
2018-09-18T08:49:06.304Z,6.25
2018-09-18T08:51:34.679Z,5.62
2018-09-18T08:54:02.887Z,5.50
2018-09-18T08:56:31.133Z,5.50
2018-09-18T08:58:59.361Z,5.85
2018-09-18T09:01:27.605Z,5.70
2018-09-18T09:03:55.854Z,5.70
2018-09-18T09:06:24.173Z,5.67
2018-09-18T09:08:52.398Z,5.60
2018-09-18T09:11:20.584Z,5.17
2018-09-18T09:13:48.823Z,5.17
2018-09-18T09:16:17.090Z,5.05
2018-09-18T09:18:45.295Z,5.28
2018-09-18T09:21:13.663Z,5.45
2018-09-18T09:23:41.855Z,5.30
2018-09-18T09:26:10.117Z,4.65
2018-09-18T09:28:38.427Z,5.45
2018-09-18T09:31:06.676Z,5.03
2018-09-18T09:33:34.902Z,6.15
2018-09-18T09:36:03.170Z,6.40
2018-09-18T09:38:31.385Z,6.35
2018-09-18T09:40:59.627Z,6.00
2018-09-18T09:43:27.848Z,6.30
2018-09-18T09:45:56.153Z,5.83
2018-09-18T09:48:24.368Z,5.78
2018-09-18T09:50:52.623Z,6.53
2018-09-18T09:53:20.849Z,6.65
2018-09-18T09:55:49.121Z,5.28
2018-09-18T09:58:17.363Z,5.42
2018-09-18T10:00:51.231Z,4.65
2018-09-18T10:03:19.456Z,4.92
2018-09-18T10:05:47.659Z,4.70
2018-09-18T10:08:15.907Z,4.62
2018-09-18T10:10:44.294Z,4.75
2018-09-18T10:13:12.429Z,4.30
2018-09-18T10:15:40.661Z,4.55
2018-09-18T10:18:08.947Z,4.50
2018-09-18T10:20:37.147Z,4.30
2018-09-18T10:23:05.386Z,4.28
2018-09-18T10:25:33.651Z,4.65
2018-09-18T10:28:01.906Z,4.50
2018-09-18T10:30:30.176Z,4.35
2018-09-18T10:32:58.454Z,4.58
2018-09-18T10:35:26.691Z,4.35
2018-09-18T10:37:54.967Z,4.05
2018-09-18T10:40:23.207Z,3.67
2018-09-18T10:42:51.573Z,4.20
2018-09-18T10:45:19.768Z,4.28
2018-09-18T10:47:48.110Z,3.83
2018-09-18T10:50:16.326Z,4.55
2018-09-18T10:52:44.738Z,4.90
2018-09-18T10:55:13.015Z,5.70
2018-09-18T10:57:41.537Z,5.72
2018-09-18T11:00:09.884Z,4.37
2018-09-18T11:02:38.141Z,4.05
2018-09-18T11:05:06.528Z,4.30
2018-09-18T11:07:34.839Z,4.62
2018-09-18T11:10:03.148Z,3.92
2018-09-18T11:12:31.247Z,3.72
2018-09-18T11:14:59.528Z,3.70
2018-09-18T11:17:27.819Z,3.70
2018-09-18T11:19:56.073Z,4.22
2018-09-18T11:22:24.543Z,3.80
2018-09-18T11:24:52.687Z,4.12
2018-09-18T11:27:20.898Z,3.83
2018-09-18T11:29:49.134Z,3.77
2018-09-18T11:32:17.357Z,4.30
2018-09-18T11:34:45.636Z,3.80
2018-09-18T11:37:13.877Z,3.70
2018-09-18T11:39:42.174Z,3.47
2018-09-18T11:42:10.393Z,4.22
2018-09-18T11:44:38.643Z,3.92
2018-09-18T11:47:06.884Z,3.65
2018-09-18T11:49:35.113Z,3.85
2018-09-18T11:52:03.353Z,3.90
2018-09-18T11:54:31.619Z,4.25
2018-09-18T11:56:59.936Z,3.70
2018-09-18T11:59:28.104Z,4.00
2018-09-18T12:01:56.324Z,3.87
2018-09-18T12:04:24.564Z,4.08
2018-09-18T12:06:52.793Z,3.77
2018-09-18T12:09:21.004Z,4.35
2018-09-18T12:11:49.238Z,4.37
2018-09-18T12:14:17.530Z,4.78
2018-09-18T12:16:45.787Z,3.95
2018-09-18T12:19:14.059Z,4.00
2018-09-18T12:21:42.259Z,4.03
2018-09-18T12:24:10.491Z,3.85
2018-09-18T12:26:38.751Z,4.50
2018-09-18T12:29:06.969Z,4.58
2018-09-18T12:31:35.319Z,4.37
2018-09-18T12:34:03.556Z,4.40
2018-09-18T12:36:31.808Z,4.22
2018-09-18T12:39:00.117Z,4.15
2018-09-18T12:41:28.367Z,3.87
2018-09-18T12:43:56.728Z,4.10
2018-09-18T12:46:24.955Z,3.98
2018-09-18T12:48:53.193Z,3.90
2018-09-18T12:51:21.429Z,3.67
2018-09-18T12:53:49.763Z,4.03
2018-09-18T12:56:17.896Z,4.00
2018-09-18T13:01:20.668Z,3.95
2018-09-18T13:03:49.011Z,3.70
2018-09-18T13:06:17.385Z,3.95
2018-09-18T13:08:45.484Z,4.33
2018-09-18T13:11:13.716Z,4.42
2018-09-18T13:13:41.935Z,4.00
2018-09-18T13:16:10.789Z,4.25
2018-09-18T13:18:39.000Z,4.30
2018-09-18T13:21:07.223Z,4.30
2018-09-18T13:23:35.508Z,5.30
2018-09-18T13:26:03.752Z,4.30
2018-09-18T13:28:31.979Z,4.40
2018-09-18T13:31:00.183Z,4.30
2018-09-18T13:33:28.415Z,4.65
2018-09-18T13:35:56.690Z,4.65
2018-09-18T13:38:24.972Z,4.53
2018-09-18T13:40:53.302Z,4.30
2018-09-18T13:43:21.466Z,4.62
2018-09-18T13:45:49.748Z,4.85
2018-09-18T13:48:17.998Z,4.12
2018-09-18T13:50:46.287Z,4.72
2018-09-18T13:53:14.600Z,4.30
2018-09-18T13:55:42.867Z,4.45
2018-09-18T13:58:11.133Z,4.45
2018-09-18T14:00:39.371Z,4.97
2018-09-18T14:03:07.664Z,3.98
2018-09-18T14:05:35.929Z,4.25
2018-09-18T14:08:04.305Z,4.22
2018-09-18T14:10:32.509Z,3.72
2018-09-18T14:13:00.768Z,3.67
2018-09-18T14:15:29.015Z,4.10
2018-09-18T14:17:57.284Z,3.67
2018-09-18T14:20:25.561Z,3.70
2018-09-18T14:22:53.774Z,3.60
2018-09-18T14:25:22.406Z,3.52
2018-09-18T14:27:50.732Z,3.55
2018-09-18T14:30:18.926Z,3.33
2018-09-18T14:32:47.149Z,3.40
2018-09-18T14:35:15.421Z,3.25
2018-09-18T14:37:43.672Z,3.50
2018-09-18T14:40:11.904Z,3.25
2018-09-18T14:42:40.185Z,3.67
2018-09-18T14:45:08.451Z,3.30
2018-09-18T14:47:36.734Z,3.20
2018-09-18T14:50:05.069Z,3.60
2018-09-18T14:52:33.318Z,3.30
2018-09-18T14:55:01.581Z,4.70
2018-09-18T14:57:29.946Z,3.17
2018-09-18T14:59:58.291Z,3.25
2018-09-18T15:02:26.713Z,3.77
2018-09-18T15:04:54.920Z,3.30
2018-09-18T15:07:23.322Z,3.17
2018-09-18T15:09:51.510Z,3.50
2018-09-18T15:12:19.759Z,3.08
2018-09-18T15:14:48.081Z,3.25
2018-09-18T15:17:16.263Z,3.30
2018-09-18T15:19:44.490Z,3.37
2018-09-18T15:22:12.753Z,2.95
2018-09-18T15:24:41.003Z,3.12
2018-09-18T15:27:09.236Z,3.27
2018-09-18T15:29:37.494Z,2.90
2018-09-18T15:32:06.051Z,3.10
2018-09-18T15:34:34.246Z,3.12
2018-09-18T15:37:02.469Z,2.87
2018-09-18T15:39:30.724Z,3.37
2018-09-18T15:41:59.121Z,2.85
2018-09-18T15:44:27.349Z,3.00
2018-09-18T15:46:55.738Z,3.20
2018-09-18T15:49:23.953Z,3.10
2018-09-18T15:51:52.247Z,2.70
2018-09-18T15:54:20.432Z,2.92
2018-09-18T15:56:48.677Z,2.72
2018-09-18T15:59:16.915Z,3.12
2018-09-18T16:01:45.299Z,3.50
2018-09-18T16:04:13.520Z,3.20
2018-09-18T16:06:41.761Z,3.17
2018-09-18T16:09:10.785Z,3.15
2018-09-18T16:11:39.385Z,3.08
2018-09-18T16:14:07.885Z,3.02
2018-09-18T16:16:36.130Z,3.20
2018-09-18T16:19:04.391Z,3.67
2018-09-18T16:21:32.619Z,3.70
2018-09-18T16:24:00.967Z,3.35
2018-09-18T16:26:29.197Z,3.90
2018-09-18T16:28:57.428Z,3.70
2018-09-18T16:31:25.675Z,3.60
2018-09-18T16:33:53.929Z,3.40
2018-09-18T16:36:22.176Z,3.42
2018-09-18T16:38:50.399Z,3.92
2018-09-18T16:41:18.628Z,3.62
2018-09-18T16:43:46.851Z,2.95
2018-09-18T16:46:15.071Z,3.35
2018-09-18T16:48:43.411Z,3.58
2018-09-18T16:51:11.579Z,3.95
2018-09-18T16:53:39.975Z,3.75
2018-09-18T16:56:08.184Z,4.90
2018-09-18T16:58:36.492Z,6.37
2018-09-18T17:01:04.780Z,7.12
2018-09-18T17:03:33.091Z,5.45
2018-09-18T17:06:01.307Z,4.90
2018-09-18T17:08:29.670Z,4.25
2018-09-18T17:10:57.893Z,4.15
2018-09-18T17:13:26.140Z,4.03
2018-09-18T17:15:54.371Z,4.28
2018-09-18T17:18:22.655Z,4.05
2018-09-18T17:20:50.900Z,4.75
2018-09-18T17:23:19.130Z,4.20
2018-09-18T17:25:47.369Z,4.53
2018-09-18T17:28:15.637Z,4.10
2018-09-18T17:30:43.906Z,4.22
2018-09-18T17:33:12.133Z,4.03
2018-09-18T17:35:40.466Z,4.10
2018-09-18T17:38:08.630Z,4.30
2018-09-18T17:40:36.856Z,4.20
2018-09-18T17:43:05.102Z,4.43
2018-09-18T17:45:33.344Z,4.20
2018-09-18T17:48:01.604Z,4.50
2018-09-18T17:50:29.870Z,4.50
2018-09-18T17:52:58.115Z,4.27
2018-09-18T17:55:26.375Z,3.80
2018-09-18T17:57:54.614Z,4.10
2018-09-18T18:00:22.864Z,4.60
2018-09-18T18:02:51.098Z,4.67
2018-09-18T18:05:19.704Z,4.70
2018-09-18T18:07:47.943Z,4.50
2018-09-18T18:10:16.277Z,4.20
2018-09-18T18:12:44.518Z,4.30
2018-09-18T18:15:13.369Z,4.97
2018-09-18T18:17:41.657Z,4.57
2018-09-18T18:20:09.907Z,4.43
2018-09-18T18:22:38.069Z,4.67
2018-09-18T18:25:06.330Z,4.53
2018-09-18T18:27:34.553Z,4.63
2018-09-18T18:30:02.780Z,5.23
2018-09-18T18:32:31.000Z,4.67
2018-09-18T18:34:59.279Z,4.87
2018-09-18T18:37:27.616Z,4.87
2018-09-18T18:39:55.883Z,4.97
2018-09-18T18:42:24.100Z,5.53
2018-09-18T18:44:52.342Z,5.10
2018-09-18T18:47:20.584Z,5.70
2018-09-18T18:49:48.870Z,5.63
2018-09-18T18:52:17.085Z,5.10
2018-09-18T18:54:45.407Z,5.00
2018-09-18T18:57:13.573Z,5.40
2018-09-18T18:59:41.809Z,5.73
2018-09-18T19:02:10.120Z,5.47
2018-09-18T19:04:38.402Z,5.83
2018-09-18T19:07:06.731Z,5.47
2018-09-18T19:09:34.957Z,5.27
2018-09-18T19:12:03.228Z,5.37
2018-09-18T19:14:31.432Z,5.40
2018-09-18T19:16:59.656Z,5.83
2018-09-18T19:19:27.908Z,5.37
2018-09-18T19:21:56.185Z,5.50
2018-09-18T19:24:24.480Z,5.30
2018-09-18T19:26:52.696Z,5.20
2018-09-18T19:29:20.951Z,4.73
2018-09-18T19:31:49.195Z,5.00
2018-09-18T19:34:17.428Z,5.43
2018-09-18T19:36:45.679Z,6.00
2018-09-18T19:39:13.989Z,5.73
2018-09-18T19:41:42.152Z,5.80
2018-09-18T19:44:10.397Z,4.70
2018-09-18T19:46:38.642Z,5.10
2018-09-18T19:49:06.878Z,4.70
2018-09-18T19:51:35.133Z,4.93
2018-09-18T19:54:03.377Z,4.67
2018-09-18T19:56:31.591Z,5.53
2018-09-18T19:58:59.819Z,5.43
2018-09-18T20:01:28.066Z,5.17
2018-09-18T20:03:56.267Z,5.10
2018-09-18T20:06:24.539Z,5.27
2018-09-18T20:08:52.832Z,5.47
2018-09-18T20:11:21.066Z,5.47
2018-09-18T20:13:50.170Z,5.97
2018-09-18T20:16:18.392Z,6.03
2018-09-18T20:18:46.593Z,6.90
2018-09-18T20:21:14.824Z,7.57
2018-09-18T20:23:43.046Z,7.60
2018-09-18T20:26:11.313Z,7.47
2018-09-18T20:28:39.615Z,7.03
2018-09-18T20:31:07.823Z,6.80
2018-09-18T20:33:36.046Z,6.93
2018-09-18T20:36:04.570Z,7.03
2018-09-18T20:38:32.785Z,6.80
2018-09-18T20:41:01.121Z,7.47
2018-09-18T20:43:29.336Z,6.30
2018-09-18T20:45:57.561Z,6.80
2018-09-18T20:48:25.833Z,6.57
2018-09-18T20:50:54.018Z,6.43
2018-09-18T20:53:22.249Z,6.40
2018-09-18T20:55:50.501Z,6.17
2018-09-18T20:58:18.864Z,6.50
2018-09-18T21:00:47.136Z,5.93
2018-09-18T21:03:15.352Z,6.17
2018-09-18T21:05:43.675Z,6.20
2018-09-18T21:08:11.915Z,6.30
2018-09-18T21:10:40.155Z,5.87
2018-09-18T21:13:08.370Z,6.13
2018-09-18T21:15:36.598Z,6.27
2018-09-18T21:18:04.837Z,6.73
2018-09-18T21:20:35.794Z,6.83
2018-09-18T21:23:04.071Z,5.43
2018-09-18T21:26:07.741Z,5.87
2018-09-18T21:28:35.946Z,5.87
2018-09-18T21:31:04.279Z,6.17
2018-09-18T21:33:32.459Z,5.77
2018-09-18T21:36:00.813Z,5.30
2018-09-18T21:38:29.264Z,6.07
2018-09-18T21:40:57.514Z,5.97
2018-09-18T21:43:26.252Z,5.97
2018-09-18T21:45:54.479Z,5.67
2018-09-18T21:48:22.739Z,6.10
2018-09-18T21:50:50.981Z,5.77
2018-09-18T21:53:19.223Z,5.43
2018-09-18T21:55:47.585Z,5.77
2018-09-18T21:58:15.806Z,6.37
2018-09-18T22:00:44.156Z,6.30
2018-09-18T22:03:12.480Z,5.97
2018-09-18T22:05:40.710Z,5.93
2018-09-18T22:08:08.949Z,6.20
2018-09-18T22:10:37.215Z,7.13
2018-09-18T22:13:05.464Z,7.17
2018-09-18T22:15:33.895Z,6.43
2018-09-18T22:18:02.113Z,6.20
2018-09-18T22:20:30.339Z,6.70
2018-09-18T22:22:58.592Z,7.00
2018-09-18T22:25:26.869Z,6.20
2018-09-18T22:27:55.129Z,6.63
2018-09-18T22:30:23.344Z,6.23
2018-09-18T22:32:51.576Z,6.97
2018-09-18T22:35:20.140Z,6.40
2018-09-18T22:37:48.397Z,6.30
2018-09-18T22:40:16.600Z,6.30
2018-09-18T22:42:44.823Z,6.23
2018-09-18T22:45:13.036Z,6.33
2018-09-18T22:47:41.274Z,5.80
2018-09-18T22:50:09.491Z,6.77
2018-09-18T22:52:37.720Z,6.60
2018-09-18T22:55:05.948Z,6.70
2018-09-18T22:57:34.304Z,6.30
2018-09-18T23:00:02.477Z,6.53
2018-09-18T23:02:30.686Z,6.47
2018-09-18T23:04:58.913Z,6.07
2018-09-18T23:07:27.135Z,6.40
2018-09-18T23:09:55.379Z,6.17
2018-09-18T23:12:23.603Z,6.80
2018-09-18T23:14:51.813Z,7.03
2018-09-18T23:17:20.083Z,5.97
2018-09-18T23:19:48.345Z,6.10
2018-09-18T23:22:16.567Z,5.73
2018-09-18T23:24:44.806Z,6.23
2018-09-18T23:27:13.056Z,6.23
2018-09-18T23:29:41.254Z,6.23
2018-09-18T23:32:09.545Z,7.10
2018-09-18T23:34:37.768Z,6.90
2018-09-18T23:37:06.000Z,7.17
2018-09-18T23:39:34.225Z,6.73
2018-09-18T23:42:02.487Z,6.83
2018-09-18T23:44:30.717Z,6.43
2018-09-18T23:46:58.985Z,6.87
2018-09-18T23:49:27.248Z,6.50
2018-09-18T23:51:55.490Z,6.97
2018-09-18T23:54:23.722Z,6.93
2018-09-18T23:56:51.938Z,6.57
2018-09-18T23:59:20.161Z,6.67
